Terminal Aerodrome Forecast
Issued by NWS

Home | Current Version | Previous Version | Text Only | Print | Product List | Glossary On
Versions: 1 2 3 4 5 6 7 8 9 10 11 12
000
FTUS46 KSTO 300520
TAFSMF
TAF
KSMF 300520Z 3006/0106 19008KT P6SM FEW250
     FM300800 15008KT P6SM FEW250
     FM301900 30005KT P6SM SKC
     FM010000 20007KT P6SM SKC=

USA.gov is the U.S. government's official web portal to all federal, state and local government web resources and services.